Columbia, MO (65218)

7:52 PM CST on March 01, 2015 (GMT -0600)
Westwind Park Old Southwest | Change Station
CLOSE
Current Station
Personal Weather Station
Location: Columbia, MO
Elevation: 723 ft
Nearby Weather Stations

Elev 723 ft 38.94 °N, 92.36 °W | Updated 13 minutes ago

Partly Cloudy
Partly Cloudy
27.2 °F
Feels Like 27 °F
N
0.0
Wind Variable Wind from NW
Gusts 2.0 mph

Today
High -- | Low -- °F
--% Chance of Precip.
Yesterday
High -- | Low -- °F
Precip. -- in
6:42 AM 6:01 PM
Waxing Gibbous, 88% visible
Pressure 30.44 in
Visibility 10.0 miles
Clouds Clear
Windchill 27 °F
Dew Point 22 °F
Humidity 79%
Rainfall 0.11 in
Snow Depth Not available.
UV 0.0 out of 12
Pollen .60 out of 12
Air Quality Not available.
Flu Activity Not available.
METAR KCOU 020054Z 30006KT 10SM CLR M03/M07 A3040 RMK AO2 SLP306 T10281072

More Conditions Fewer Conditions

Pressure 30.44 in
Visibility 10.0 miles
Clouds Clear
Windchill 27 °F
Dew Point 22 °F
Humidity 79%
Rainfall 0.11 in
Snow Depth Not available.
UV 0.0 out of 12
Pollen .60 out of 12
Air Quality Not available.
Flu Activity Not available.
METAR KCOU 020054Z 30006KT 10SM CLR M03/M07 A3040 RMK AO2 SLP306 T10281072

More Conditions Fewer Conditions

10-Day Weather Forecast

Almanac

Astronomy

Mar. 01, 2015 Rise Set
Actual Time
Civil Twilight
Nautical Twilight
Astronomical Twilight
Moon
Length of Visible Light
Length of Day
Tomorrow will be .
, % of the Moon is Illuminated

Today's Extremes

State Highs State Lows

Community

WunderPhotos

Upload Photos

1,801,677 photos uploaded!

WunderBlogs® & News

Nearby

Air Quality

  Air Quality AQ Index Pollutant
Not available.

Snow Depth

Station Depth Elevation

Earthquake Activity

City Distance Mag. Time & Date
Minimum magnitude displayed is 2.5.

Coastal Water Temperatures

Place Temperature

Nearby Weather Stations